PWSweather.com
Personal Weather Stations
Station Observations
KILMORRI1
Goose Lake, Morris, IL 60450

Goose LakeMorris, IL 60450

Lat: 41.34, Lon: -88.3

Elevation: 523

Station Type:

www.gooselakeweather.com

High Low Average
Temperature 32.2°F0.1°C 20.3°F-6.5°C 25.9°F-3.4°C
Dew Point 12.3°F-10.9°C -1.3°F-18.5°C 3.2°F-16.0°C
Winds 10.4 mph 16.7 kmh Calm Calm 5.0 mph S8.0 kmh S
Wind Gusts 15.0 mph24.1 kmh -- 7.0 mph11.3 kmh
Humidity 56% 24% 38%
Pressure 30.55 in1034.5 mb 30.45 in1031.2 mb -
Precipitation 0.00 in0.0 mm - -
Hour Temp Dew Point Humidity Winds Wind Gusts Pressure Precip Precip Rate Daily Precip Total
12:00 AM 25.8°F-3.4°C 5.3°F-14.8°C 41% 5.8 mph N9.3 kmh N 6.9 mph11.1 kmh 30.45 in1031.2 mb - 0.00 in0.0 mm 0.00 in0.0 mm
12:10 AM 25.7°F-3.5°C 4.7°F-15.2°C 40% 4.6 mph N7.4 kmh N 8.1 mph13.0 kmh 30.45 in1031.2 mb - 0.00 in0.0 mm 0.00 in0.0 mm
12:20 AM 25.5°F-3.6°C 4.0°F-15.6°C 39% 6.9 mph N11.1 kmh N 11.5 mph18.5 kmh 30.46 in1031.5 mb - 0.00 in0.0 mm 0.00 in0.0 mm
12:30 AM 25.3°F-3.7°C 3.8°F-15.7°C 39% 6.9 mph N11.1 kmh N 9.2 mph14.8 kmh 30.46 in1031.5 mb - 0.00 in0.0 mm 0.00 in0.0 mm
12:40 AM 25.1°F-3.8°C 3.0°F-16.1°C 38% 8.1 mph N13.0 kmh N 13.8 mph22.2 kmh 30.46 in1031.5 mb - 0.00 in0.0 mm 0.00 in0.0 mm
12:50 AM 24.9°F-3.9°C 2.3°F-16.5°C 37% 6.9 mph 11.1 kmh 9.2 mph14.8 kmh 30.46 in1031.5 mb - 0.00 in0.0 mm 0.00 in0.0 mm
01:00 AM 24.7°F-4.1°C 2.1°F-16.6°C 37% 6.9 mph N11.1 kmh N 10.4 mph16.7 kmh 30.46 in1031.5 mb - 0.00 in0.0 mm 0.00 in0.0 mm
01:10 AM 24.6°F-4.1°C 2.0°F-16.7°C 37% 6.9 mph N11.1 kmh N 8.1 mph13.0 kmh 30.46 in1031.5 mb - 0.00 in0.0 mm 0.00 in0.0 mm
01:20 AM 24.5°F-4.2°C 2.5°F-16.4°C 38% 9.2 mph N14.8 kmh N 11.5 mph18.5 kmh 30.45 in1031.2 mb - 0.00 in0.0 mm 0.00 in0.0 mm
01:30 AM 24.4°F-4.2°C 2.3°F-16.5°C 38% 6.9 mph N11.1 kmh N 8.1 mph13.0 kmh 30.45 in1031.2 mb - 0.00 in0.0 mm 0.00 in0.0 mm
01:40 AM 24.2°F-4.3°C 2.2°F-16.6°C 38% 6.9 mph N11.1 kmh N 9.2 mph14.8 kmh 30.46 in1031.5 mb - 0.00 in0.0 mm 0.00 in0.0 mm
01:50 AM 24.1°F-4.4°C 2.1°F-16.6°C 38% 8.1 mph N13.0 kmh N 11.5 mph18.5 kmh 30.46 in1031.5 mb - 0.00 in0.0 mm 0.00 in0.0 mm
02:00 AM 23.9°F-4.5°C 1.4°F-17.0°C 37% 10.4 mph N16.7 kmh N 12.7 mph20.4 kmh 30.47 in1031.8 mb - 0.00 in0.0 mm 0.00 in0.0 mm
02:10 AM 23.7°F-4.6°C 1.2°F-17.1°C 37% 9.2 mph N14.8 kmh N 15.0 mph24.1 kmh 30.47 in1031.8 mb - 0.00 in0.0 mm 0.00 in0.0 mm
02:20 AM 23.6°F-4.7°C 1.1°F-17.2°C 37% 6.9 mph N11.1 kmh N 9.2 mph14.8 kmh 30.47 in1031.8 mb - 0.00 in0.0 mm 0.00 in0.0 mm
02:30 AM 23.4°F-4.8°C 2.0°F-16.7°C 39% 6.9 mph N11.1 kmh N 11.5 mph18.5 kmh 30.47 in1031.8 mb - 0.00 in0.0 mm 0.00 in0.0 mm
02:40 AM 23.2°F-4.9°C 1.3°F-17.1°C 38% 6.9 mph N11.1 kmh N 10.4 mph16.7 kmh 30.48 in1032.2 mb - 0.00 in0.0 mm 0.00 in0.0 mm
02:50 AM 23.1°F-4.9°C 2.3°F-16.5°C 40% 8.1 mph N13.0 kmh N 13.8 mph22.2 kmh 30.47 in1031.8 mb - 0.00 in0.0 mm 0.00 in0.0 mm
03:00 AM 23.0°F-5.0°C 2.2°F-16.6°C 40% 6.9 mph N11.1 kmh N 9.2 mph14.8 kmh 30.48 in1032.2 mb - 0.00 in0.0 mm 0.00 in0.0 mm
03:10 AM 22.7°F-5.2°C 3.5°F-15.8°C 43% 3.5 mph N5.6 kmh N 5.8 mph9.3 kmh 30.48 in1032.2 mb - 0.00 in0.0 mm 0.00 in0.0 mm
03:20 AM 22.4°F-5.3°C 3.7°F-15.7°C 44% 5.8 mph N9.3 kmh N 9.2 mph14.8 kmh 30.48 in1032.2 mb - 0.00 in0.0 mm 0.00 in0.0 mm
03:30 AM 22.4°F-5.3°C 3.2°F-16.0°C 43% 6.9 mph N11.1 kmh N 8.1 mph13.0 kmh 30.48 in1032.2 mb - 0.00 in0.0 mm 0.00 in0.0 mm
03:40 AM 22.3°F-5.4°C 3.7°F-15.7°C 44% 4.6 mph N7.4 kmh N 6.9 mph11.1 kmh 30.48 in1032.2 mb - 0.00 in0.0 mm 0.00 in0.0 mm
03:50 AM 22.3°F-5.4°C 3.7°F-15.7°C 44% 4.6 mph N7.4 kmh N 6.9 mph11.1 kmh 30.48 in1032.2 mb - 0.00 in0.0 mm 0.00 in0.0 mm
04:00 AM 22.1°F-5.5°C 3.5°F-15.8°C 44% 3.5 mph 5.6 kmh 5.8 mph9.3 kmh 30.48 in1032.2 mb - 0.00 in0.0 mm 0.00 in0.0 mm
04:10 AM 21.9°F-5.6°C 3.8°F-15.7°C 45% 5.8 mph N9.3 kmh N 9.2 mph14.8 kmh 30.48 in1032.2 mb - 0.00 in0.0 mm 0.00 in0.0 mm
04:20 AM 21.7°F-5.7°C 4.1°F-15.5°C 46% 4.6 mph N7.4 kmh N 6.9 mph11.1 kmh 30.49 in1032.5 mb - 0.00 in0.0 mm 0.00 in0.0 mm
04:30 AM 21.5°F-5.8°C 3.9°F-15.6°C 46% 4.6 mph NNE7.4 kmh NNE 6.9 mph11.1 kmh 30.49 in1032.5 mb - 0.00 in0.0 mm 0.00 in0.0 mm
04:40 AM 21.2°F-6.0°C 4.5°F-15.3°C 48% 4.6 mph N7.4 kmh N 5.8 mph9.3 kmh 30.49 in1032.5 mb - 0.00 in0.0 mm 0.00 in0.0 mm
04:50 AM 21.1°F-6.1°C 3.5°F-15.8°C 46% 4.6 mph N7.4 kmh N 6.9 mph11.1 kmh 30.50 in1032.8 mb - 0.00 in0.0 mm 0.00 in0.0 mm
05:00 AM 20.9°F-6.2°C 4.7°F-15.2°C 49% 4.6 mph NNE7.4 kmh NNE 5.8 mph9.3 kmh 30.50 in1032.8 mb - 0.00 in0.0 mm 0.00 in0.0 mm
05:10 AM 20.5°F-6.4°C 4.8°F-15.1°C 50% 3.5 mph N5.6 kmh N 5.8 mph9.3 kmh 30.50 in1032.8 mb - 0.00 in0.0 mm 0.00 in0.0 mm
05:20 AM 20.5°F-6.4°C 3.9°F-15.6°C 48% 3.5 mph N5.6 kmh N 5.8 mph9.3 kmh 30.50 in1032.8 mb - 0.00 in0.0 mm 0.00 in0.0 mm
05:30 AM 20.3°F-6.5°C 3.3°F-15.9°C 47% 5.8 mph N9.3 kmh N 6.9 mph11.1 kmh 30.51 in1033.2 mb - 0.00 in0.0 mm 0.00 in0.0 mm
05:40 AM 20.3°F-6.5°C 3.3°F-15.9°C 47% 5.8 mph N9.3 kmh N 6.9 mph11.1 kmh 30.50 in1032.8 mb - 0.00 in0.0 mm 0.00 in0.0 mm
05:50 AM 20.4°F-6.4°C 3.3°F-15.9°C 47% 6.9 mph N11.1 kmh N 9.2 mph14.8 kmh 30.51 in1033.2 mb - 0.00 in0.0 mm 0.00 in0.0 mm
06:00 AM 20.3°F-6.5°C 4.6°F-15.2°C 50% 4.6 mph N7.4 kmh N 5.8 mph9.3 kmh 30.51 in1033.2 mb - 0.00 in0.0 mm 0.00 in0.0 mm
06:10 AM 20.3°F-6.5°C 4.2°F-15.4°C 49% 5.8 mph N9.3 kmh N 6.9 mph11.1 kmh 30.52 in1033.5 mb - 0.00 in0.0 mm 0.00 in0.0 mm
06:20 AM 20.4°F-6.4°C 4.3°F-15.4°C 49% 4.6 mph N7.4 kmh N 9.2 mph14.8 kmh 30.52 in1033.5 mb - 0.00 in0.0 mm 0.00 in0.0 mm
06:30 AM 20.6°F-6.3°C 3.5°F-15.8°C 47% 6.9 mph N11.1 kmh N 8.1 mph13.0 kmh 30.52 in1033.5 mb - 0.00 in0.0 mm 0.00 in0.0 mm
06:40 AM 20.6°F-6.3°C 3.1°F-16.1°C 46% 6.9 mph NNE11.1 kmh NNE 8.1 mph13.0 kmh 30.53 in1033.9 mb - 0.00 in0.0 mm 0.00 in0.0 mm
06:50 AM 20.6°F-6.3°C 2.1°F-16.6°C 44% 5.8 mph NNE9.3 kmh NNE 8.1 mph13.0 kmh 30.53 in1033.9 mb - 0.00 in0.0 mm 0.00 in0.0 mm
07:00 AM 20.5°F-6.4°C 3.0°F-16.1°C 46% 4.6 mph N7.4 kmh N 5.8 mph9.3 kmh 30.53 in1033.9 mb - 0.00 in0.0 mm 0.00 in0.0 mm
07:10 AM 20.3°F-6.5°C 1.3°F-17.1°C 43% 4.6 mph N7.4 kmh N 9.2 mph14.8 kmh 30.53 in1033.9 mb - 0.00 in0.0 mm 0.00 in0.0 mm
07:20 AM 20.3°F-6.5°C 1.3°F-17.1°C 43% 6.9 mph N11.1 kmh N 8.1 mph13.0 kmh 30.53 in1033.9 mb - 0.00 in0.0 mm 0.00 in0.0 mm
07:30 AM 20.3°F-6.5°C 1.4°F-17.0°C 43% 8.1 mph N13.0 kmh N 11.5 mph18.5 kmh 30.53 in1033.9 mb - 0.00 in0.0 mm 0.00 in0.0 mm
07:40 AM 20.4°F-6.4°C 1.9°F-16.7°C 44% 5.8 mph N9.3 kmh N 6.9 mph11.1 kmh 30.53 in1033.9 mb - 0.00 in0.0 mm 0.00 in0.0 mm
07:50 AM 20.6°F-6.3°C 2.1°F-16.6°C 44% 5.8 mph N9.3 kmh N 4.6 mph7.4 kmh 30.53 in1033.9 mb - 0.00 in0.0 mm 0.00 in0.0 mm
08:00 AM 20.7°F-6.3°C 1.7°F-16.8°C 43% 5.8 mph N9.3 kmh N 9.2 mph14.8 kmh 30.53 in1033.9 mb - 0.00 in0.0 mm 0.00 in0.0 mm
08:10 AM 20.6°F-6.3°C 2.1°F-16.6°C 44% 5.8 mph N9.3 kmh N 10.4 mph16.7 kmh 30.53 in1033.9 mb - 0.00 in0.0 mm 0.00 in0.0 mm
08:20 AM 20.7°F-6.3°C 1.7°F-16.8°C 43% 5.8 mph N9.3 kmh N 9.2 mph14.8 kmh 30.53 in1033.9 mb - 0.00 in0.0 mm 0.00 in0.0 mm
08:30 AM 20.8°F-6.2°C 1.3°F-17.1°C 42% 6.9 mph N11.1 kmh N 10.4 mph16.7 kmh 30.54 in1034.2 mb - 0.00 in0.0 mm 0.00 in0.0 mm
08:40 AM 20.7°F-6.3°C 0.1°F-17.7°C 40% 5.8 mph N9.3 kmh N 8.1 mph13.0 kmh 30.54 in1034.2 mb - 0.00 in0.0 mm 0.00 in0.0 mm
08:50 AM 21.2°F-6.0°C 0.6°F-17.4°C 40% 5.8 mph NNE9.3 kmh NNE 8.1 mph13.0 kmh 30.54 in1034.2 mb - 0.00 in0.0 mm 0.00 in0.0 mm
09:00 AM 21.2°F-6.0°C 0.1°F-17.7°C 39% 6.9 mph N11.1 kmh N 10.4 mph16.7 kmh 30.54 in1034.2 mb - 0.00 in0.0 mm 0.00 in0.0 mm
09:10 AM 21.8°F-5.7°C 1.1°F-17.2°C 40% 6.9 mph N11.1 kmh N 8.1 mph13.0 kmh 30.55 in1034.5 mb - 0.00 in0.0 mm 0.00 in0.0 mm
09:20 AM 22.4°F-5.3°C 1.2°F-17.1°C 39% 6.9 mph 11.1 kmh 9.2 mph14.8 kmh 30.54 in1034.2 mb - 0.00 in0.0 mm 0.00 in0.0 mm
09:30 AM 22.9°F-5.1°C 2.1°F-16.6°C 40% 8.1 mph NNE13.0 kmh NNE 10.4 mph16.7 kmh 30.54 in1034.2 mb - 0.00 in0.0 mm 0.00 in0.0 mm
09:40 AM 23.0°F-5.0°C 1.1°F-17.2°C 38% 6.9 mph N11.1 kmh N 9.2 mph14.8 kmh 30.54 in1034.2 mb - 0.00 in0.0 mm 0.00 in0.0 mm
09:50 AM 22.9°F-5.1°C 1.1°F-17.2°C 38% 10.4 mph N16.7 kmh N 12.7 mph20.4 kmh 30.53 in1033.9 mb - 0.00 in0.0 mm 0.00 in0.0 mm
10:00 AM 23.4°F-4.8°C 0.9°F-17.3°C 37% 9.2 mph NNE14.8 kmh NNE 11.5 mph18.5 kmh 30.54 in1034.2 mb - 0.00 in0.0 mm 0.00 in0.0 mm
10:10 AM 24.0°F-4.4°C 0.9°F-17.3°C 36% 6.9 mph N11.1 kmh N 10.4 mph16.7 kmh 30.54 in1034.2 mb - 0.00 in0.0 mm 0.00 in0.0 mm
10:20 AM 24.3°F-4.3°C 1.1°F-17.2°C 36% 5.8 mph NNE9.3 kmh NNE 6.9 mph11.1 kmh 30.53 in1033.9 mb - 0.00 in0.0 mm 0.00 in0.0 mm
10:30 AM 24.3°F-4.3°C -0.1°F-17.8°C 34% 3.5 mph N5.6 kmh N 11.5 mph18.5 kmh 30.54 in1034.2 mb - 0.00 in0.0 mm 0.00 in0.0 mm
10:40 AM 24.4°F-4.2°C 0.7°F-17.4°C 35% 4.6 mph NNW7.4 kmh NNW 8.1 mph13.0 kmh 30.54 in1034.2 mb - 0.00 in0.0 mm 0.00 in0.0 mm
10:50 AM 24.4°F-4.2°C 0.6°F-17.4°C 35% 3.5 mph NNE5.6 kmh NNE 8.1 mph13.0 kmh 30.54 in1034.2 mb - 0.00 in0.0 mm 0.00 in0.0 mm
11:00 AM 24.8°F-4.0°C 1.6°F-16.9°C 36% 5.8 mph N9.3 kmh N 8.1 mph13.0 kmh 30.54 in1034.2 mb - 0.00 in0.0 mm 0.00 in0.0 mm
11:10 AM 25.1°F-3.8°C 1.2°F-17.1°C 35% 6.9 mph NW11.1 kmh NW 11.5 mph18.5 kmh 30.54 in1034.2 mb - 0.00 in0.0 mm 0.00 in0.0 mm
11:20 AM 24.8°F-4.0°C 2.2°F-16.6°C 37% 3.5 mph N5.6 kmh N 8.1 mph13.0 kmh 30.55 in1034.5 mb - 0.00 in0.0 mm 0.00 in0.0 mm
11:30 AM 26.2°F-3.2°C 1.6°F-16.9°C 34% 6.9 mph NW11.1 kmh NW 10.4 mph16.7 kmh 30.54 in1034.2 mb - 0.00 in0.0 mm 0.00 in0.0 mm
11:40 AM 26.6°F-3.0°C 2.6°F-16.3°C 35% 8.1 mph N13.0 kmh N 9.2 mph14.8 kmh 30.54 in1034.2 mb - 0.00 in0.0 mm 0.00 in0.0 mm
11:50 AM 26.9°F-2.8°C 2.9°F-16.2°C 35% 6.9 mph NW11.1 kmh NW 11.5 mph18.5 kmh 30.54 in1034.2 mb - 0.00 in0.0 mm 0.00 in0.0 mm
12:00 PM 25.7°F-3.5°C 0.5°F-17.5°C 33% 1.2 mph NNW1.9 kmh NNW 3.5 mph5.6 kmh 30.54 in1034.2 mb - 0.00 in0.0 mm 0.00 in0.0 mm
12:10 PM 26.6°F-3.0°C 3.2°F-16.0°C 36% 3.5 mph N5.6 kmh N 10.4 mph16.7 kmh 30.54 in1034.2 mb - 0.00 in0.0 mm 0.00 in0.0 mm
12:20 PM 27.4°F-2.6°C 2.6°F-16.3°C 34% 6.9 mph NNW11.1 kmh NNW 11.5 mph18.5 kmh 30.54 in1034.2 mb - 0.00 in0.0 mm 0.00 in0.0 mm
12:30 PM 27.4°F-2.6°C 2.6°F-16.3°C 34% 6.9 mph N11.1 kmh N 8.1 mph13.0 kmh 30.54 in1034.2 mb - 0.00 in0.0 mm 0.00 in0.0 mm
12:40 PM 28.0°F-2.2°C 4.4°F-15.3°C 36% 4.6 mph N7.4 kmh N 6.9 mph11.1 kmh 30.54 in1034.2 mb - 0.00 in0.0 mm 0.00 in0.0 mm
12:50 PM 28.1°F-2.2°C 3.3°F-15.9°C 34% 5.8 mph NNW9.3 kmh NNW 11.5 mph18.5 kmh 30.54 in1034.2 mb - 0.00 in0.0 mm 0.00 in0.0 mm
01:00 PM 28.1°F-2.2°C 2.7°F-16.3°C 33% 3.5 mph NW5.6 kmh NW 11.5 mph18.5 kmh 30.53 in1033.9 mb - 0.00 in0.0 mm 0.00 in0.0 mm
01:10 PM 28.6°F-1.9°C 3.7°F-15.7°C 34% 5.8 mph WNW9.3 kmh WNW 6.9 mph11.1 kmh 30.53 in1033.9 mb - 0.00 in0.0 mm 0.00 in0.0 mm
01:20 PM 29.2°F-1.6°C 5.5°F-14.7°C 36% 3.5 mph NNW5.6 kmh NNW 9.2 mph14.8 kmh 30.52 in1033.5 mb - 0.00 in0.0 mm 0.00 in0.0 mm
01:30 PM 29.1°F-1.6°C 1.5°F-16.9°C 30% 6.9 mph NW11.1 kmh NW 9.2 mph14.8 kmh 30.52 in1033.5 mb - 0.00 in0.0 mm 0.00 in0.0 mm
01:40 PM 29.2°F-1.6°C 1.6°F-16.9°C 30% 5.8 mph N9.3 kmh N 6.9 mph11.1 kmh 30.52 in1033.5 mb - 0.00 in0.0 mm 0.00 in0.0 mm
01:50 PM 30.0°F-1.1°C 5.0°F-15.0°C 34% 5.8 mph ENE9.3 kmh ENE 6.9 mph11.1 kmh 30.51 in1033.2 mb - 0.00 in0.0 mm 0.00 in0.0 mm
02:00 PM 29.5°F-1.4°C 5.2°F-14.9°C 35% 3.5 mph NW5.6 kmh NW 8.1 mph13.0 kmh 30.50 in1032.8 mb - 0.00 in0.0 mm 0.00 in0.0 mm
02:10 PM 30.4°F-0.9°C 2.6°F-16.3°C 30% 3.5 mph N5.6 kmh N 4.6 mph7.4 kmh 30.50 in1032.8 mb - 0.00 in0.0 mm 0.00 in0.0 mm
02:20 PM 30.2°F-1.0°C 1.7°F-16.8°C 29% 5.8 mph NNW9.3 kmh NNW 6.9 mph11.1 kmh 30.50 in1032.8 mb - 0.00 in0.0 mm 0.00 in0.0 mm
02:30 PM 31.3°F-0.4°C 4.8°F-15.1°C 32% 8.1 mph NNW13.0 kmh NNW 11.5 mph18.5 kmh 30.50 in1032.8 mb - 0.00 in0.0 mm 0.00 in0.0 mm
02:40 PM 31.0°F-0.6°C 4.6°F-15.2°C 32% 4.6 mph NNW7.4 kmh NNW 5.8 mph9.3 kmh 30.50 in1032.8 mb - 0.00 in0.0 mm 0.00 in0.0 mm
02:50 PM 31.6°F-0.2°C 5.8°F-14.6°C 33% 5.8 mph NW9.3 kmh NW 10.4 mph16.7 kmh 30.50 in1032.8 mb - 0.00 in0.0 mm 0.00 in0.0 mm
03:00 PM 30.9°F-0.6°C 1.5°F-16.9°C 28% 5.8 mph NNE9.3 kmh NNE 8.1 mph13.0 kmh 30.49 in1032.5 mb - 0.00 in0.0 mm 0.00 in0.0 mm
03:10 PM 31.3°F-0.4°C 4.8°F-15.1°C 32% 4.6 mph N7.4 kmh N 6.9 mph11.1 kmh 30.49 in1032.5 mb - 0.00 in0.0 mm 0.00 in0.0 mm
03:20 PM 31.4°F-0.3°C 3.5°F-15.8°C 30% 5.8 mph N9.3 kmh N 8.1 mph13.0 kmh 30.49 in1032.5 mb - 0.00 in0.0 mm 0.00 in0.0 mm
03:30 PM 31.8°F-0.1°C 4.6°F-15.2°C 31% 5.8 mph NNW9.3 kmh NNW 4.6 mph7.4 kmh 30.48 in1032.2 mb - 0.00 in0.0 mm 0.00 in0.0 mm
03:40 PM 31.6°F-0.2°C 3.6°F-15.8°C 30% 4.6 mph NW7.4 kmh NW 8.1 mph13.0 kmh 30.48 in1032.2 mb - 0.00 in0.0 mm 0.00 in0.0 mm
03:50 PM 31.7°F-0.2°C 2.3°F-16.5°C 28% 5.8 mph NW9.3 kmh NW 8.1 mph13.0 kmh 30.48 in1032.2 mb - 0.00 in0.0 mm 0.00 in0.0 mm
04:00 PM 31.5°F-0.3°C 2.8°F-16.2°C 29% 8.1 mph NNW13.0 kmh NNW 9.2 mph14.8 kmh 30.48 in1032.2 mb - 0.00 in0.0 mm 0.00 in0.0 mm
04:10 PM 31.9°F-0.1°C 3.2°F-16.0°C 29% 6.9 mph NNW11.1 kmh NNW 10.4 mph16.7 kmh 30.48 in1032.2 mb - 0.00 in0.0 mm 0.00 in0.0 mm
04:20 PM 31.9°F-0.1°C 3.2°F-16.0°C 29% 8.1 mph NW13.0 kmh NW 11.5 mph18.5 kmh 30.48 in1032.2 mb - 0.00 in0.0 mm 0.00 in0.0 mm
04:30 PM 32.2°F0.1°C 1.9°F-16.7°C 27% 6.9 mph NW11.1 kmh NW 8.1 mph13.0 kmh 30.48 in1032.2 mb - 0.00 in0.0 mm 0.00 in0.0 mm
04:40 PM 31.8°F-0.1°C 0.7°F-17.4°C 26% 5.8 mph N9.3 kmh N 8.1 mph13.0 kmh 30.48 in1032.2 mb - 0.00 in0.0 mm 0.00 in0.0 mm
04:50 PM 31.9°F-0.1°C 0.0°F-17.8°C 25% 5.8 mph NNW9.3 kmh NNW 9.2 mph14.8 kmh 30.48 in1032.2 mb - 0.00 in0.0 mm 0.00 in0.0 mm
05:00 PM 31.7°F-0.2°C -0.2°F-17.9°C 25% 3.5 mph N5.6 kmh N 5.8 mph9.3 kmh 30.48 in1032.2 mb - 0.00 in0.0 mm 0.00 in0.0 mm
05:10 PM 31.6°F-0.2°C -1.1°F-18.4°C 24% 8.1 mph NW13.0 kmh NW 11.5 mph18.5 kmh 30.48 in1032.2 mb - 0.00 in0.0 mm 0.00 in0.0 mm
05:20 PM 31.4°F-0.3°C -1.3°F-18.5°C 24% 5.8 mph N9.3 kmh N 8.1 mph13.0 kmh 30.48 in1032.2 mb - 0.00 in0.0 mm 0.00 in0.0 mm
05:30 PM 31.2°F-0.4°C 0.2°F-17.7°C 26% 4.6 mph NNW7.4 kmh NNW 5.8 mph9.3 kmh 30.48 in1032.2 mb - 0.00 in0.0 mm 0.00 in0.0 mm
05:40 PM 31.1°F-0.5°C 0.2°F-17.7°C 26% 6.9 mph 11.1 kmh 9.2 mph14.8 kmh 30.47 in1031.8 mb - 0.00 in0.0 mm 0.00 in0.0 mm
05:50 PM 31.0°F-0.6°C -0.8°F-18.2°C 25% 4.6 mph N7.4 kmh N 4.6 mph7.4 kmh 30.48 in1032.2 mb - 0.00 in0.0 mm 0.00 in0.0 mm
06:00 PM 30.7°F-0.7°C -0.2°F-17.9°C 26% 4.6 mph N7.4 kmh N 10.4 mph16.7 kmh 30.48 in1032.2 mb - 0.00 in0.0 mm 0.00 in0.0 mm
06:10 PM 30.4°F-0.9°C 0.3°F-17.6°C 27% 5.8 mph NW9.3 kmh NW 6.9 mph11.1 kmh 30.48 in1032.2 mb - 0.00 in0.0 mm 0.00 in0.0 mm
06:20 PM 30.1°F-1.1°C 0.1°F-17.7°C 27% 5.8 mph NW9.3 kmh NW 9.2 mph14.8 kmh 30.47 in1031.8 mb - 0.00 in0.0 mm 0.00 in0.0 mm
06:30 PM 29.6°F-1.3°C -1.1°F-18.4°C 26% 2.3 mph NNW3.7 kmh NNW 3.5 mph5.6 kmh 30.48 in1032.2 mb - 0.00 in0.0 mm 0.00 in0.0 mm
06:40 PM 29.1°F-1.6°C 1.5°F-16.9°C 30% 4.6 mph NNW7.4 kmh NNW 8.1 mph13.0 kmh 30.48 in1032.2 mb - 0.00 in0.0 mm 0.00 in0.0 mm
06:50 PM 28.5°F-1.9°C 1.6°F-16.9°C 31% 3.5 mph N5.6 kmh N 4.6 mph7.4 kmh 30.48 in1032.2 mb - 0.00 in0.0 mm 0.00 in0.0 mm
07:00 PM 28.1°F-2.2°C 2.0°F-16.7°C 32% 3.5 mph NNW5.6 kmh NNW 5.8 mph9.3 kmh 30.48 in1032.2 mb - 0.00 in0.0 mm 0.00 in0.0 mm
07:10 PM 28.0°F-2.2°C 1.9°F-16.7°C 32% 3.5 mph N5.6 kmh N 3.5 mph5.6 kmh 30.48 in1032.2 mb - 0.00 in0.0 mm 0.00 in0.0 mm
07:20 PM 27.7°F-2.4°C 4.2°F-15.4°C 36% 2.3 mph N3.7 kmh N 3.5 mph5.6 kmh 30.48 in1032.2 mb - 0.00 in0.0 mm 0.00 in0.0 mm
07:30 PM 27.6°F-2.4°C 4.7°F-15.2°C 37% 1.2 mph N1.9 kmh N 3.5 mph5.6 kmh 30.48 in1032.2 mb - 0.00 in0.0 mm 0.00 in0.0 mm
07:40 PM 27.6°F-2.4°C 5.2°F-14.9°C 38% 2.3 mph N3.7 kmh N 3.5 mph5.6 kmh 30.48 in1032.2 mb - 0.00 in0.0 mm 0.00 in0.0 mm
07:50 PM 27.8°F-2.3°C 4.8°F-15.1°C 37% 4.6 mph N7.4 kmh N 5.8 mph9.3 kmh 30.48 in1032.2 mb - 0.00 in0.0 mm 0.00 in0.0 mm
08:00 PM 27.9°F-2.3°C 5.0°F-15.0°C 37% 3.5 mph NNE5.6 kmh NNE 4.6 mph7.4 kmh 30.49 in1032.5 mb - 0.00 in0.0 mm 0.00 in0.0 mm
08:10 PM 28.0°F-2.2°C 4.4°F-15.3°C 36% 4.6 mph NNE7.4 kmh NNE 6.9 mph11.1 kmh 30.49 in1032.5 mb - 0.00 in0.0 mm 0.00 in0.0 mm
08:20 PM 28.0°F-2.2°C 4.4°F-15.3°C 36% 5.8 mph N9.3 kmh N 6.9 mph11.1 kmh 30.50 in1032.8 mb - 0.00 in0.0 mm 0.00 in0.0 mm
08:30 PM 28.0°F-2.2°C 4.4°F-15.3°C 36% 3.5 mph N5.6 kmh N 6.9 mph11.1 kmh 30.50 in1032.8 mb - 0.00 in0.0 mm 0.00 in0.0 mm
08:40 PM 27.9°F-2.3°C 5.0°F-15.0°C 37% 5.8 mph N9.3 kmh N 9.2 mph14.8 kmh 30.50 in1032.8 mb - 0.00 in0.0 mm 0.00 in0.0 mm
08:50 PM 27.9°F-2.3°C 3.7°F-15.7°C 35% 3.5 mph N5.6 kmh N 4.6 mph7.4 kmh 30.50 in1032.8 mb - 0.00 in0.0 mm 0.00 in0.0 mm
09:00 PM 27.8°F-2.3°C 4.3°F-15.4°C 36% 3.5 mph NNE5.6 kmh NNE 4.6 mph7.4 kmh 30.50 in1032.8 mb - 0.00 in0.0 mm 0.00 in0.0 mm
09:10 PM 27.7°F-2.4°C 3.5°F-15.8°C 35% 4.6 mph N7.4 kmh N 5.8 mph9.3 kmh 30.51 in1033.2 mb - 0.00 in0.0 mm 0.00 in0.0 mm
09:20 PM 27.6°F-2.4°C 2.8°F-16.2°C 34% 5.8 mph NNE9.3 kmh NNE 8.1 mph13.0 kmh 30.51 in1033.2 mb - 0.00 in0.0 mm 0.00 in0.0 mm
09:30 PM 27.6°F-2.4°C 3.5°F-15.8°C 35% 3.5 mph NNE5.6 kmh NNE 8.1 mph13.0 kmh 30.51 in1033.2 mb - 0.00 in0.0 mm 0.00 in0.0 mm
09:40 PM 27.6°F-2.4°C 3.4°F-15.9°C 35% 4.6 mph NNE7.4 kmh NNE 4.6 mph7.4 kmh 30.51 in1033.2 mb - 0.00 in0.0 mm 0.00 in0.0 mm
09:50 PM 27.5°F-2.5°C 4.0°F-15.6°C 36% 4.6 mph N7.4 kmh N 4.6 mph7.4 kmh 30.51 in1033.2 mb - 0.00 in0.0 mm 0.00 in0.0 mm
10:00 PM 27.4°F-2.6°C 4.5°F-15.3°C 37% 3.5 mph NNE5.6 kmh NNE 3.5 mph5.6 kmh 30.51 in1033.2 mb - 0.00 in0.0 mm 0.00 in0.0 mm
10:10 PM 27.3°F-2.6°C 4.4°F-15.3°C 37% 3.5 mph NNE5.6 kmh NNE 5.8 mph9.3 kmh 30.51 in1033.2 mb - 0.00 in0.0 mm 0.00 in0.0 mm
10:20 PM 27.3°F-2.6°C 4.4°F-15.3°C 37% 4.6 mph NNE7.4 kmh NNE 4.6 mph7.4 kmh 30.51 in1033.2 mb - 0.00 in0.0 mm 0.00 in0.0 mm
10:30 PM 27.2°F-2.7°C 4.9°F-15.1°C 38% 3.5 mph N5.6 kmh N 3.5 mph5.6 kmh 30.52 in1033.5 mb - 0.00 in0.0 mm 0.00 in0.0 mm
10:40 PM 27.1°F-2.7°C 4.8°F-15.1°C 38% 3.5 mph N5.6 kmh N 3.5 mph5.6 kmh 30.52 in1033.5 mb - 0.00 in0.0 mm 0.00 in0.0 mm
10:50 PM 27.1°F-2.7°C 5.4°F-14.8°C 39% 3.5 mph NNE5.6 kmh NNE 3.5 mph5.6 kmh 30.51 in1033.2 mb - 0.00 in0.0 mm 0.00 in0.0 mm
11:00 PM 27.1°F-2.7°C 4.8°F-15.1°C 38% 3.5 mph NNE5.6 kmh NNE 4.6 mph7.4 kmh 30.51 in1033.2 mb - 0.00 in0.0 mm 0.00 in0.0 mm
11:10 PM 27.1°F-2.7°C 5.4°F-14.8°C 39% 3.5 mph N5.6 kmh N 4.6 mph7.4 kmh 30.51 in1033.2 mb - 0.00 in0.0 mm 0.00 in0.0 mm
11:20 PM 27.0°F-2.8°C 5.9°F-14.5°C 40% 3.5 mph N5.6 kmh N 4.6 mph7.4 kmh 30.51 in1033.2 mb - 0.00 in0.0 mm 0.00 in0.0 mm
11:30 PM 27.0°F-2.8°C 6.4°F-14.2°C 41% 3.5 mph NNE5.6 kmh NNE 4.6 mph7.4 kmh 30.51 in1033.2 mb - 0.00 in0.0 mm 0.00 in0.0 mm
11:40 PM 26.7°F-2.9°C 10.5°F-11.9°C 50% 1.2 mph E1.9 kmh E 2.3 mph3.7 kmh 30.51 in1033.2 mb - 0.00 in0.0 mm 0.00 in0.0 mm
11:50 PM 26.3°F-3.2°C 10.6°F-11.9°C 51% 1.2 mph E1.9 kmh E 2.3 mph3.7 kmh 30.51 in1033.2 mb - 0.00 in0.0 mm 0.00 in0.0 mm